createdAt,value
2019-05-19T00:01:40.652Z,16.97
2019-05-19T00:04:05.278Z,17.14
2019-05-19T00:06:29.860Z,17.06
2019-05-19T00:08:54.341Z,17.02
2019-05-19T00:11:18.853Z,16.99
2019-05-19T00:13:43.333Z,16.88
2019-05-19T00:16:07.862Z,16.91
2019-05-19T00:18:32.305Z,16.84
2019-05-19T00:20:56.756Z,16.65
2019-05-19T00:23:21.366Z,16.51
2019-05-19T00:25:46.649Z,16.44
2019-05-19T00:28:12.692Z,16.44
2019-05-19T00:30:37.159Z,16.38
2019-05-19T00:33:01.684Z,16.37
2019-05-19T00:35:26.172Z,16.30
2019-05-19T00:37:50.607Z,16.35
2019-05-19T00:40:15.163Z,16.41
2019-05-19T00:42:39.687Z,16.49
2019-05-19T00:45:09.061Z,16.60
2019-05-19T00:47:33.496Z,16.24
2019-05-19T00:49:58.097Z,16.22
2019-05-19T00:52:22.609Z,15.94
2019-05-19T00:54:47.080Z,16.08
2019-05-19T00:57:12.021Z,16.05
2019-05-19T00:59:37.514Z,16.19
2019-05-19T01:02:01.957Z,16.33
2019-05-19T01:04:26.488Z,15.64
2019-05-19T01:06:50.926Z,15.66
2019-05-19T01:09:15.464Z,16.01
2019-05-19T01:11:39.942Z,16.29
2019-05-19T01:14:04.854Z,16.27
2019-05-19T01:16:29.405Z,16.27
2019-05-19T01:18:53.849Z,16.13
2019-05-19T01:21:18.518Z,16.16
2019-05-19T01:23:43.088Z,16.06
2019-05-19T01:26:07.709Z,15.50
2019-05-19T01:28:32.155Z,15.67
2019-05-19T01:30:56.773Z,15.52
2019-05-19T01:33:21.207Z,15.60
2019-05-19T01:35:45.717Z,15.70
2019-05-19T01:38:10.240Z,15.88
2019-05-19T01:40:34.695Z,15.75
2019-05-19T01:42:59.213Z,15.76
2019-05-19T01:45:23.756Z,15.79
2019-05-19T01:47:48.211Z,15.64
2019-05-19T01:50:18.088Z,15.44
2019-05-19T01:52:39.457Z,15.71
2019-05-19T01:55:05.404Z,15.61
2019-05-19T01:57:29.917Z,15.43
2019-05-19T01:59:54.382Z,15.66
2019-05-19T02:02:18.860Z,15.66
2019-05-19T02:04:43.305Z,15.68
2019-05-19T02:07:07.838Z,15.56
2019-05-19T02:09:32.307Z,15.47
2019-05-19T02:11:56.762Z,15.40
2019-05-19T02:14:21.206Z,15.22
2019-05-19T02:16:45.675Z,15.13
2019-05-19T02:19:10.256Z,14.91
2019-05-19T02:21:34.720Z,15.18
2019-05-19T02:23:59.262Z,15.30
2019-05-19T02:26:23.719Z,15.39
2019-05-19T02:28:48.237Z,15.05
2019-05-19T02:31:12.760Z,14.91
2019-05-19T02:33:37.208Z,14.75
2019-05-19T02:36:01.729Z,14.93
2019-05-19T02:38:26.186Z,14.92
2019-05-19T02:40:53.709Z,14.78
2019-05-19T02:43:18.697Z,14.95
2019-05-19T02:45:44.116Z,14.97
2019-05-19T02:48:11.067Z,15.02
2019-05-19T02:50:51.777Z,14.87
2019-05-19T02:53:04.430Z,14.77
2019-05-19T02:55:30.807Z,14.85
2019-05-19T02:57:56.373Z,14.90
2019-05-19T03:00:23.866Z,14.90
2019-05-19T03:02:48.374Z,14.90
2019-05-19T03:05:13.439Z,14.83
2019-05-19T03:07:41.025Z,14.47
2019-05-19T03:10:06.988Z,14.78
2019-05-19T03:12:31.544Z,14.74
2019-05-19T03:14:56.063Z,14.64
2019-05-19T03:17:20.531Z,14.85
2019-05-19T03:19:44.970Z,14.78
2019-05-19T03:22:09.495Z,14.67
2019-05-19T03:24:33.933Z,14.62
2019-05-19T03:26:58.426Z,14.78
2019-05-19T03:29:24.526Z,14.17
2019-05-19T03:31:50.726Z,14.66
2019-05-19T03:34:15.304Z,14.76
2019-05-19T03:36:39.856Z,14.76
2019-05-19T03:39:06.444Z,14.55
2019-05-19T03:41:31.071Z,14.46
2019-05-19T03:43:55.530Z,14.66
2019-05-19T03:46:20.061Z,14.58
2019-05-19T03:48:44.493Z,14.54
2019-05-19T03:51:09.804Z,14.36
2019-05-19T03:53:34.267Z,14.49
2019-05-19T03:55:58.704Z,14.43
2019-05-19T03:58:23.172Z,14.42
2019-05-19T04:00:47.625Z,14.43
2019-05-19T04:03:12.086Z,14.47
2019-05-19T04:05:36.534Z,14.39
2019-05-19T04:08:00.999Z,13.95
2019-05-19T04:10:25.443Z,14.40
2019-05-19T04:12:49.996Z,14.43
2019-05-19T04:15:14.776Z,14.22
2019-05-19T04:17:39.342Z,13.71
2019-05-19T04:20:04.800Z,13.74
2019-05-19T04:22:29.355Z,14.31
2019-05-19T04:24:53.898Z,14.42
2019-05-19T04:27:18.456Z,14.29
2019-05-19T04:29:42.911Z,14.90
2019-05-19T04:32:07.426Z,14.96
2019-05-19T04:34:32.071Z,14.93
2019-05-19T04:36:56.552Z,15.07
2019-05-19T04:39:20.995Z,15.12
2019-05-19T04:41:45.480Z,15.09
2019-05-19T04:44:09.980Z,15.22
2019-05-19T04:46:34.411Z,15.16
2019-05-19T04:48:59.015Z,15.20
2019-05-19T04:51:23.470Z,15.38
2019-05-19T04:53:47.945Z,15.42
2019-05-19T04:56:12.385Z,15.60
2019-05-19T04:58:36.922Z,15.42
2019-05-19T05:01:01.356Z,15.62
2019-05-19T05:03:25.930Z,15.68
2019-05-19T05:05:50.672Z,15.95
2019-05-19T05:08:28.684Z,16.03
2019-05-19T05:10:41.426Z,16.14
2019-05-19T05:13:05.938Z,16.17
2019-05-19T05:15:30.531Z,16.32
2019-05-19T05:17:55.027Z,16.32
2019-05-19T05:20:19.616Z,16.11
2019-05-19T05:22:44.095Z,16.41
2019-05-19T05:25:09.318Z,16.38
2019-05-19T05:27:33.788Z,16.63
2019-05-19T05:29:58.294Z,16.64
2019-05-19T05:32:22.769Z,16.77
2019-05-19T05:34:47.363Z,16.88
2019-05-19T05:37:11.836Z,16.96
2019-05-19T05:39:36.300Z,16.97
2019-05-19T05:42:00.824Z,17.05
2019-05-19T05:44:25.290Z,17.13
2019-05-19T05:46:49.815Z,17.28
2019-05-19T05:49:14.308Z,17.31
2019-05-19T05:51:38.844Z,17.39
2019-05-19T05:54:03.381Z,17.32
2019-05-19T05:56:27.829Z,17.47
2019-05-19T05:58:52.322Z,17.59
2019-05-19T06:01:16.769Z,17.65
2019-05-19T06:03:41.322Z,17.65
2019-05-19T06:06:05.805Z,17.72
2019-05-19T06:08:30.348Z,17.81
2019-05-19T06:10:54.793Z,17.78
2019-05-19T06:13:19.451Z,17.87
2019-05-19T06:15:43.908Z,18.02
2019-05-19T06:18:08.465Z,17.99
2019-05-19T06:20:32.989Z,18.17
2019-05-19T06:22:57.893Z,18.28
2019-05-19T06:25:22.507Z,18.17
2019-05-19T06:27:47.011Z,18.04
2019-05-19T06:30:11.665Z,18.15
2019-05-19T06:32:46.767Z,18.20
2019-05-19T06:35:11.480Z,18.35
2019-05-19T06:37:35.950Z,18.61
2019-05-19T06:40:00.419Z,18.57
2019-05-19T06:42:24.877Z,18.71
2019-05-19T06:44:49.403Z,18.90
2019-05-19T06:47:13.848Z,18.73
2019-05-19T06:49:38.363Z,18.96
2019-05-19T06:52:02.821Z,19.02
2019-05-19T06:54:27.310Z,19.05
2019-05-19T06:56:51.760Z,19.06
2019-05-19T06:59:16.281Z,19.20
2019-05-19T07:01:40.753Z,19.34
2019-05-19T07:04:05.490Z,19.25
2019-05-19T07:06:30.014Z,19.33
2019-05-19T07:08:54.472Z,19.43
2019-05-19T07:11:18.941Z,19.48
2019-05-19T07:13:43.471Z,19.60
2019-05-19T07:16:07.906Z,19.67
2019-05-19T07:18:32.440Z,19.74
2019-05-19T07:20:56.877Z,19.85
2019-05-19T07:23:28.267Z,19.97
2019-05-19T07:25:47.530Z,20.06
2019-05-19T07:28:12.043Z,20.13
2019-05-19T07:30:36.598Z,20.19
2019-05-19T07:33:01.051Z,20.19
2019-05-19T07:35:25.527Z,20.24
2019-05-19T07:37:50.036Z,20.33
2019-05-19T07:40:14.831Z,20.51
2019-05-19T07:42:39.409Z,20.49
2019-05-19T07:45:04.534Z,20.47
2019-05-19T07:47:29.058Z,20.59
2019-05-19T07:49:53.521Z,20.75
2019-05-19T07:52:17.996Z,20.82
2019-05-19T07:54:42.481Z,20.95
2019-05-19T07:57:06.941Z,21.00
2019-05-19T07:59:31.463Z,21.09
2019-05-19T08:01:55.904Z,21.14
2019-05-19T08:04:20.375Z,21.16
2019-05-19T08:06:44.804Z,21.34
2019-05-19T08:09:09.315Z,21.18
2019-05-19T08:11:34.123Z,21.38
2019-05-19T08:13:58.660Z,21.57
2019-05-19T08:16:23.142Z,21.75
2019-05-19T08:18:47.654Z,21.86
2019-05-19T08:21:12.191Z,21.84
2019-05-19T08:23:36.647Z,21.97
2019-05-19T08:26:01.290Z,21.99
2019-05-19T08:28:25.818Z,22.02
2019-05-19T08:30:50.382Z,22.15
2019-05-19T08:33:14.825Z,22.42
2019-05-19T08:35:39.377Z,22.39
2019-05-19T08:38:03.886Z,22.34
2019-05-19T08:40:28.363Z,22.35
2019-05-19T08:42:52.809Z,22.48
2019-05-19T08:45:17.417Z,22.50
2019-05-19T08:47:41.874Z,22.70
2019-05-19T08:50:07.385Z,22.86
2019-05-19T08:52:31.885Z,22.90
2019-05-19T08:54:56.420Z,22.99
2019-05-19T08:57:20.902Z,23.16
2019-05-19T08:59:45.347Z,23.04
2019-05-19T09:02:09.814Z,23.18
2019-05-19T09:04:34.268Z,23.42
2019-05-19T09:06:58.751Z,23.58
2019-05-19T09:09:23.269Z,23.70
2019-05-19T09:11:48.069Z,23.69
2019-05-19T09:14:12.611Z,23.83
2019-05-19T09:16:37.133Z,23.92
2019-05-19T09:19:01.578Z,23.98
2019-05-19T09:21:26.165Z,24.13
2019-05-19T09:23:50.682Z,24.12
2019-05-19T09:26:15.155Z,24.35
2019-05-19T09:28:39.733Z,24.53
2019-05-19T09:31:04.317Z,24.39
2019-05-19T09:33:28.763Z,24.42
2019-05-19T09:35:53.207Z,24.65
2019-05-19T09:38:17.750Z,24.85
2019-05-19T09:40:42.184Z,24.87
2019-05-19T09:43:06.645Z,24.57
2019-05-19T09:45:31.245Z,25.18
2019-05-19T09:47:55.714Z,25.48
2019-05-19T09:50:20.605Z,25.40
2019-05-19T09:52:45.129Z,25.40
2019-05-19T09:55:09.942Z,25.60
2019-05-19T09:57:34.562Z,25.46
2019-05-19T09:59:59.110Z,25.47
2019-05-19T10:02:23.745Z,25.72
2019-05-19T10:04:48.177Z,26.04
2019-05-19T10:07:12.860Z,25.88
2019-05-19T10:09:47.764Z,26.00
2019-05-19T10:12:12.244Z,26.03
2019-05-19T10:14:36.805Z,25.98
2019-05-19T10:17:01.657Z,26.19
2019-05-19T10:19:26.337Z,26.31
2019-05-19T10:21:50.972Z,25.99
2019-05-19T10:24:15.479Z,26.07
2019-05-19T10:26:40.052Z,26.46
2019-05-19T10:29:04.592Z,26.47
2019-05-19T10:31:29.042Z,26.74
2019-05-19T10:33:53.539Z,26.56
2019-05-19T10:36:18.481Z,26.77
2019-05-19T10:38:43.047Z,27.25
2019-05-19T10:41:07.486Z,27.43
2019-05-19T10:43:32.033Z,27.48
2019-05-19T10:46:02.185Z,27.34
2019-05-19T10:48:26.974Z,27.20
2019-05-19T10:50:51.467Z,27.47
2019-05-19T10:53:15.941Z,27.72
2019-05-19T10:55:40.427Z,27.64
2019-05-19T10:58:04.963Z,27.61
2019-05-19T11:00:29.513Z,28.11
2019-05-19T11:02:53.977Z,28.08
2019-05-19T11:05:18.547Z,27.96
2019-05-19T11:07:43.187Z,27.77
2019-05-19T11:10:08.070Z,27.67
2019-05-19T11:12:32.587Z,27.95
2019-05-19T11:14:57.048Z,28.06
2019-05-19T11:17:21.553Z,27.90
2019-05-19T11:19:46.016Z,28.17
2019-05-19T11:22:10.453Z,28.30
2019-05-19T11:24:34.906Z,28.38
2019-05-19T11:26:59.416Z,28.38
2019-05-19T11:29:23.933Z,28.67
2019-05-19T11:31:48.370Z,28.64
2019-05-19T11:34:12.924Z,28.70
2019-05-19T11:36:37.524Z,28.49
2019-05-19T11:39:02.067Z,28.34
2019-05-19T11:41:26.502Z,28.13
2019-05-19T11:43:51.066Z,28.62
2019-05-19T11:46:15.514Z,29.02
2019-05-19T11:48:40.604Z,29.47
2019-05-19T11:51:05.046Z,28.96
2019-05-19T11:53:29.582Z,28.72
2019-05-19T11:56:05.810Z,28.88
2019-05-19T11:58:20.479Z,28.76
2019-05-19T12:00:45.017Z,29.26
2019-05-19T12:03:09.628Z,29.28
2019-05-19T12:05:34.453Z,29.11
2019-05-19T12:07:59.060Z,29.10
2019-05-19T12:10:23.659Z,29.07
2019-05-19T12:12:48.093Z,28.59
2019-05-19T12:15:12.902Z,28.05
2019-05-19T12:17:37.353Z,28.45
2019-05-19T12:20:01.916Z,28.73
2019-05-19T12:22:26.363Z,28.72
2019-05-19T12:24:50.886Z,29.00
2019-05-19T12:27:17.632Z,28.69
2019-05-19T12:29:42.172Z,28.78
2019-05-19T12:32:06.629Z,28.84
2019-05-19T12:34:31.149Z,29.06
2019-05-19T12:36:55.592Z,29.37
2019-05-19T12:39:20.082Z,29.22
2019-05-19T12:41:44.599Z,29.42
2019-05-19T12:44:09.104Z,29.71
2019-05-19T12:46:33.570Z,29.28
2019-05-19T12:48:58.012Z,28.88
2019-05-19T12:51:22.637Z,29.20
2019-05-19T12:53:47.272Z,29.70
2019-05-19T12:56:11.840Z,29.47
2019-05-19T12:58:36.268Z,29.65
2019-05-19T13:01:00.754Z,29.90
2019-05-19T13:03:25.199Z,29.87
2019-05-19T13:05:49.750Z,29.93
2019-05-19T13:08:14.173Z,30.19
2019-05-19T13:10:38.719Z,30.12
2019-05-19T13:13:03.161Z,29.99
2019-05-19T13:15:27.822Z,29.69
2019-05-19T13:17:52.592Z,29.85
2019-05-19T13:20:17.270Z,29.61
2019-05-19T13:22:41.727Z,29.31
2019-05-19T13:25:06.825Z,29.57
2019-05-19T13:27:31.347Z,29.23
2019-05-19T13:29:55.901Z,29.77
2019-05-19T13:32:20.502Z,29.70
2019-05-19T13:34:44.971Z,29.59
2019-05-19T13:37:09.450Z,29.62
2019-05-19T13:39:33.948Z,29.34
2019-05-19T13:41:58.421Z,29.87
2019-05-19T13:44:22.858Z,30.07
2019-05-19T13:46:47.347Z,30.16
2019-05-19T13:49:11.811Z,30.18
2019-05-19T13:51:36.432Z,30.25
2019-05-19T13:54:00.918Z,29.96
2019-05-19T13:56:25.473Z,30.37
2019-05-19T13:58:49.960Z,29.74
2019-05-19T14:01:27.675Z,30.34
2019-05-19T14:03:40.546Z,30.54
2019-05-19T14:06:05.065Z,30.17
2019-05-19T14:08:29.597Z,30.38
2019-05-19T14:10:54.059Z,30.43
2019-05-19T14:13:18.498Z,30.71
2019-05-19T14:15:43.103Z,30.82
2019-05-19T14:18:07.540Z,30.88
2019-05-19T14:20:32.096Z,31.05
2019-05-19T14:22:56.651Z,31.13
2019-05-19T14:25:21.136Z,31.42
2019-05-19T14:27:45.715Z,31.11
2019-05-19T14:30:10.888Z,31.04
2019-05-19T14:32:35.358Z,30.89
2019-05-19T14:34:59.869Z,30.53
2019-05-19T14:37:24.366Z,30.42
2019-05-19T14:39:48.799Z,30.60
2019-05-19T14:42:14.907Z,30.83
2019-05-19T14:44:39.335Z,31.16
2019-05-19T14:47:03.944Z,30.90
2019-05-19T14:49:28.404Z,31.16
2019-05-19T14:51:52.941Z,30.99
2019-05-19T14:54:17.578Z,30.21
2019-05-19T14:56:42.162Z,30.57
2019-05-19T14:59:06.607Z,30.25
2019-05-19T15:01:31.180Z,30.33
2019-05-19T15:03:55.681Z,29.91
2019-05-19T15:06:20.224Z,30.03
2019-05-19T15:08:44.692Z,30.17
2019-05-19T15:11:09.174Z,29.88
2019-05-19T15:13:33.678Z,30.04
2019-05-19T15:15:58.216Z,30.32
2019-05-19T15:18:22.730Z,30.18
2019-05-19T15:20:47.180Z,30.47
2019-05-19T15:23:11.646Z,30.34
2019-05-19T15:25:36.081Z,30.08
2019-05-19T15:28:04.858Z,29.68
2019-05-19T15:30:26.850Z,29.68
2019-05-19T15:32:51.371Z,29.56
2019-05-19T15:35:16.007Z,29.65
2019-05-19T15:37:40.529Z,29.57
2019-05-19T15:40:08.385Z,29.60
2019-05-19T15:42:32.930Z,29.66
2019-05-19T15:44:57.404Z,29.77
2019-05-19T15:47:21.896Z,29.67
2019-05-19T15:49:46.418Z,29.71
2019-05-19T15:52:11.035Z,29.47
2019-05-19T15:54:35.487Z,29.31
2019-05-19T15:56:59.960Z,29.26
2019-05-19T15:59:24.515Z,29.34
2019-05-19T16:01:49.168Z,29.10
2019-05-19T16:04:13.749Z,29.27
2019-05-19T16:06:39.126Z,29.47
2019-05-19T16:09:05.577Z,29.58
2019-05-19T16:11:29.996Z,29.65
2019-05-19T16:13:54.652Z,29.80
2019-05-19T16:16:19.440Z,29.67
2019-05-19T16:18:43.892Z,29.61
2019-05-19T16:21:08.320Z,29.50
2019-05-19T16:23:32.923Z,29.06
2019-05-19T16:25:57.364Z,29.59
2019-05-19T16:28:30.303Z,29.67
2019-05-19T16:30:48.126Z,29.38
2019-05-19T16:33:12.959Z,29.49
2019-05-19T16:35:37.397Z,29.62
2019-05-19T16:38:01.888Z,29.77
2019-05-19T16:40:26.396Z,29.84
2019-05-19T16:42:51.067Z,29.80
2019-05-19T16:45:16.161Z,29.72
2019-05-19T16:47:40.666Z,29.79
2019-05-19T16:50:07.200Z,29.36
2019-05-19T16:52:31.679Z,29.68
2019-05-19T16:55:13.796Z,29.46
2019-05-19T16:57:38.299Z,29.67
2019-05-19T17:00:02.890Z,29.50
2019-05-19T17:02:27.342Z,29.56
2019-05-19T17:04:51.838Z,29.26
2019-05-19T17:07:16.314Z,29.04
2019-05-19T17:09:40.760Z,29.07
2019-05-19T17:12:06.901Z,28.71
2019-05-19T17:14:31.579Z,28.85
2019-05-19T17:16:56.031Z,29.08
2019-05-19T17:19:20.551Z,29.07
2019-05-19T17:21:44.985Z,29.06
2019-05-19T17:24:09.523Z,28.98
2019-05-19T17:26:34.048Z,29.04
2019-05-19T17:29:00.949Z,28.83
2019-05-19T17:31:25.721Z,28.82
2019-05-19T17:33:50.327Z,28.79
2019-05-19T17:36:14.786Z,28.87
2019-05-19T17:38:39.384Z,28.83
2019-05-19T17:41:03.857Z,28.72
2019-05-19T17:43:28.309Z,28.71
2019-05-19T17:45:52.868Z,28.71
2019-05-19T17:48:26.135Z,28.82
2019-05-19T17:50:43.665Z,28.17
2019-05-19T17:53:08.197Z,28.56
2019-05-19T17:55:34.672Z,28.55
2019-05-19T17:58:01.402Z,28.31
2019-05-19T18:00:40.645Z,28.34
2019-05-19T18:03:06.310Z,28.27
2019-05-19T18:05:30.900Z,27.96
2019-05-19T18:07:55.324Z,27.69
2019-05-19T18:10:19.853Z,27.92
2019-05-19T18:12:44.359Z,27.85
2019-05-19T18:15:09.065Z,27.89
2019-05-19T18:17:33.510Z,27.78
2019-05-19T18:19:57.996Z,27.86
2019-05-19T18:22:22.537Z,27.61
2019-05-19T18:24:47.012Z,27.81
2019-05-19T18:27:11.561Z,27.71
2019-05-19T18:29:36.107Z,27.21
2019-05-19T18:32:00.550Z,27.32
2019-05-19T18:34:25.004Z,27.37
2019-05-19T18:36:49.463Z,27.00
2019-05-19T18:39:13.970Z,27.27
2019-05-19T18:41:38.559Z,26.91
2019-05-19T18:44:03.081Z,26.94
2019-05-19T18:46:27.690Z,27.03
2019-05-19T18:48:52.271Z,26.92
2019-05-19T18:51:16.746Z,26.74
2019-05-19T18:53:41.364Z,26.80
2019-05-19T18:56:05.836Z,26.82
2019-05-19T18:58:30.548Z,26.74
2019-05-19T19:00:55.221Z,26.75
2019-05-19T19:03:19.818Z,26.70
2019-05-19T19:05:44.439Z,26.60
2019-05-19T19:08:08.949Z,26.41
2019-05-19T19:10:33.567Z,26.38
2019-05-19T19:12:58.182Z,26.40
2019-05-19T19:15:22.798Z,26.42
2019-05-19T19:17:47.337Z,26.10
2019-05-19T19:20:12.477Z,26.24
2019-05-19T19:22:37.034Z,26.12
2019-05-19T19:25:03.015Z,26.14
2019-05-19T19:27:27.488Z,25.94
2019-05-19T19:30:02.872Z,25.94
2019-05-19T19:32:18.079Z,25.84
2019-05-19T19:34:42.531Z,25.85
2019-05-19T19:37:07.189Z,25.85
2019-05-19T19:39:31.783Z,25.79
2019-05-19T19:41:56.276Z,25.62
2019-05-19T19:44:20.795Z,25.55
2019-05-19T19:46:45.262Z,25.60
2019-05-19T19:49:09.782Z,25.46
2019-05-19T19:51:34.326Z,25.46
2019-05-19T19:53:58.774Z,25.38
2019-05-19T19:56:23.423Z,25.36
2019-05-19T19:58:48.651Z,25.26
2019-05-19T20:01:13.224Z,25.13
2019-05-19T20:03:40.307Z,25.16
2019-05-19T20:06:03.971Z,24.94
2019-05-19T20:08:28.476Z,24.94
2019-05-19T20:10:53.027Z,24.96
2019-05-19T20:13:17.483Z,24.82
2019-05-19T20:15:41.935Z,24.63
2019-05-19T20:18:06.647Z,24.63
2019-05-19T20:20:31.343Z,24.71
2019-05-19T20:22:55.797Z,24.59
2019-05-19T20:25:20.227Z,24.61
2019-05-19T20:27:44.770Z,24.49
2019-05-19T20:30:09.448Z,24.33
2019-05-19T20:32:33.995Z,24.27
2019-05-19T20:34:58.516Z,24.43
2019-05-19T20:37:23.088Z,24.33
2019-05-19T20:39:47.525Z,24.28
2019-05-19T20:42:12.020Z,24.06
2019-05-19T20:44:36.467Z,24.05
2019-05-19T20:47:00.983Z,24.23
2019-05-19T20:49:25.581Z,24.10
2019-05-19T20:51:50.017Z,24.00
2019-05-19T20:54:14.606Z,24.03
2019-05-19T20:56:39.142Z,23.91
2019-05-19T20:59:03.759Z,23.90
2019-05-19T21:01:28.202Z,23.84
2019-05-19T21:03:52.745Z,23.85
2019-05-19T21:06:17.183Z,23.78
2019-05-19T21:08:41.757Z,23.81
2019-05-19T21:11:06.191Z,23.72
2019-05-19T21:13:30.719Z,23.64
2019-05-19T21:15:55.148Z,23.53
2019-05-19T21:18:19.611Z,23.56
2019-05-19T21:20:44.215Z,23.60
2019-05-19T21:23:08.691Z,23.48
2019-05-19T21:25:33.288Z,23.49
2019-05-19T21:27:57.760Z,23.44
2019-05-19T21:30:22.220Z,23.33
2019-05-19T21:32:46.699Z,23.33
2019-05-19T21:35:11.319Z,23.11
2019-05-19T21:37:35.868Z,23.30
2019-05-19T21:40:00.391Z,22.87
2019-05-19T21:42:25.210Z,22.96
2019-05-19T21:44:49.645Z,23.03
2019-05-19T21:47:14.265Z,22.96
2019-05-19T21:49:38.755Z,22.87
2019-05-19T21:52:03.364Z,22.97
2019-05-19T21:54:28.653Z,22.88
2019-05-19T21:56:53.442Z,22.80
2019-05-19T21:59:17.984Z,22.70
2019-05-19T22:01:43.100Z,22.71
2019-05-19T22:04:08.088Z,22.75
2019-05-19T22:06:34.340Z,22.66
2019-05-19T22:08:58.796Z,22.71
2019-05-19T22:11:23.529Z,22.60
2019-05-19T22:13:48.333Z,22.66
2019-05-19T22:16:13.961Z,22.44
2019-05-19T22:18:38.592Z,22.64
2019-05-19T22:21:04.506Z,22.63
2019-05-19T22:23:29.359Z,22.58
2019-05-19T22:25:54.262Z,22.46
2019-05-19T22:28:18.804Z,22.31
2019-05-19T22:30:43.334Z,22.38
2019-05-19T22:33:07.913Z,22.31
2019-05-19T22:35:32.549Z,22.26
2019-05-19T22:37:57.010Z,22.09
2019-05-19T22:40:21.590Z,22.26
2019-05-19T22:42:48.957Z,22.01
2019-05-19T22:45:13.684Z,21.87
2019-05-19T22:47:38.143Z,21.98
2019-05-19T22:50:02.774Z,22.02
2019-05-19T22:52:27.285Z,21.86
2019-05-19T22:54:51.820Z,21.86
2019-05-19T22:57:18.022Z,21.84
2019-05-19T22:59:42.528Z,21.80
2019-05-19T23:02:09.249Z,21.75
2019-05-19T23:04:33.317Z,21.70
2019-05-19T23:06:57.846Z,21.78
2019-05-19T23:09:22.313Z,21.74
2019-05-19T23:11:46.786Z,21.88
2019-05-19T23:14:11.270Z,21.78
2019-05-19T23:16:35.713Z,21.53
2019-05-19T23:19:00.273Z,21.76
2019-05-19T23:21:24.874Z,21.71
2019-05-19T23:23:49.360Z,21.66
2019-05-19T23:26:13.910Z,21.72
2019-05-19T23:28:38.359Z,21.57
2019-05-19T23:31:02.913Z,21.62
2019-05-19T23:33:27.384Z,21.63
2019-05-19T23:35:51.881Z,21.53
2019-05-19T23:38:16.394Z,21.46
2019-05-19T23:40:40.938Z,21.53
2019-05-19T23:43:05.667Z,21.51
2019-05-19T23:45:30.198Z,21.25
2019-05-19T23:47:54.729Z,21.37
2019-05-19T23:50:19.317Z,21.34
2019-05-19T23:52:43.734Z,21.37
2019-05-19T23:55:08.871Z,21.22
2019-05-19T23:57:33.541Z,21.21
2019-05-19T23:59:57.981Z,21.18
